Time;durP1;ratioP1;P1;durP2;ratioP2;P2;SDS_P1;SDS_P2;PMS_P1;PMS_P2;Temp;Humidity;BMP_temperature;BMP_pressure;BME280_temperature;BME280_humidity;BME280_pressure;Samples;Min_cycle;Max_cycle;Signal;HPM_P1;HPM_P2
2022/02/17 00:01:49;;;;;;;0.65;0.22;;;;;;;11.99;100.00;97546.78;5230522;28;20033;-87
2022/02/17 00:04:19;;;;;;;2.65;0.50;;;;;;;12.01;100.00;97555.34;5234553;28;20024;-88
2022/02/17 00:06:49;;;;;;;0.88;0.28;;;;;;;11.96;100.00;97569.81;5233975;28;20028;-88
2022/02/17 00:09:20;;;;;;;1.45;0.40;;;;;;;11.95;100.00;97594.31;5234433;28;20036;-88
2022/02/17 00:11:50;;;;;;;0.77;0.20;;;;;;;11.82;100.00;97597.16;5231808;28;20072;-87
2022/02/17 00:14:20;;;;;;;0.77;0.47;;;;;;;11.76;100.00;97583.81;5233142;28;20025;-88
2022/02/17 00:16:53;;;;;;;0.95;0.20;;;;;;;11.65;100.00;97591.78;5232910;28;20311;-88
2022/02/17 00:19:24;;;;;;;1.33;0.30;;;;;;;11.63;100.00;97580.63;5229990;28;20391;-87
2022/02/17 00:21:54;;;;;;;0.55;0.20;;;;;;;11.58;100.00;97561.91;5233228;28;20021;-88
2022/02/17 00:24:24;;;;;;;0.68;0.22;;;;;;;11.49;100.00;97600.09;5231253;28;20031;-88
2022/02/17 00:26:54;;;;;;;2.22;0.47;;;;;;;11.41;100.00;97613.00;5237852;28;20029;-88
2022/02/17 00:29:25;;;;;;;2.10;0.40;;;;;;;11.32;100.00;97624.25;5231201;28;20032;-87
2022/02/17 00:31:55;;;;;;;1.75;0.40;;;;;;;11.27;100.00;97636.88;5229540;28;20362;-87
2022/02/17 00:34:25;;;;;;;1.17;0.40;;;;;;;11.26;100.00;97632.59;5232380;28;20031;-88
2022/02/17 00:36:56;;;;;;;3.10;0.50;;;;;;;11.16;100.00;97638.75;5222519;28;20036;-87
2022/02/17 00:39:26;;;;;;;2.00;0.65;;;;;;;11.08;100.00;97683.00;5234073;28;20056;-85
2022/02/17 00:41:56;;;;;;;6.25;0.95;;;;;;;11.02;100.00;97677.44;5230222;28;20475;-88
2022/02/17 00:44:27;;;;;;;4.03;0.75;;;;;;;10.85;100.00;97704.16;5232547;28;20032;-87
2022/02/17 00:46:57;;;;;;;5.15;0.75;;;;;;;10.78;100.00;97705.59;5229932;28;20020;-88
2022/02/17 00:49:28;;;;;;;2.25;0.50;;;;;;;10.77;100.00;97669.97;5229163;28;20497;-88
2022/02/17 00:51:59;;;;;;;1.95;0.50;;;;;;;10.76;100.00;97702.28;5232409;28;20139;-88
2022/02/17 00:54:29;;;;;;;1.92;0.45;;;;;;;10.81;100.00;97700.09;5234408;28;20108;-88
2022/02/17 00:57:00;;;;;;;2.35;0.45;;;;;;;10.88;100.00;97694.25;5229188;28;20555;-86
2022/02/17 00:59:30;;;;;;;4.13;0.75;;;;;;;10.99;100.00;97698.63;5234320;28;20124;-87
2022/02/17 01:02:01;;;;;;;1.27;0.60;;;;;;;11.05;100.00;97704.97;5234285;28;20085;-89
2022/02/17 01:04:31;;;;;;;8.00;0.90;;;;;;;11.13;100.00;97727.88;5227382;28;20084;-88
2022/02/17 01:07:02;;;;;;;3.20;0.70;;;;;;;11.12;100.00;97740.09;5227049;28;20024;-88
2022/02/17 01:09:32;;;;;;;2.35;0.60;;;;;;;11.14;100.00;97729.50;5235031;28;20036;-88
2022/02/17 01:12:03;;;;;;;2.95;0.60;;;;;;;11.17;100.00;97724.88;5234230;28;20039;-88
2022/02/17 01:14:34;;;;;;;3.65;0.80;;;;;;;11.13;100.00;97733.91;5232482;28;20028;-88
2022/02/17 01:17:04;;;;;;;4.57;0.70;;;;;;;11.10;100.00;97733.34;5230385;28;20531;-88
2022/02/17 01:19:35;;;;;;;4.53;0.90;;;;;;;11.13;100.00;97728.66;5233816;28;20059;-88
2022/02/17 01:22:06;;;;;;;2.95;0.82;;;;;;;11.02;100.00;97726.13;5228179;28;20025;-87
2022/02/17 01:24:36;;;;;;;2.97;0.77;;;;;;;11.06;100.00;97726.69;5232812;28;20090;-88
2022/02/17 01:27:06;;;;;;;4.40;0.80;;;;;;;11.05;100.00;97741.56;5225827;28;20502;-88
2022/02/17 01:29:37;;;;;;;6.25;1.00;;;;;;;11.06;100.00;97751.06;5230418;28;20986;-88
2022/02/17 01:32:08;;;;;;;2.22;0.50;;;;;;;11.02;100.00;97734.94;5225851;28;20398;-88
2022/02/17 01:34:39;;;;;;;5.63;0.85;;;;;;;11.04;100.00;97721.63;5227840;28;20037;-90
2022/02/17 01:37:10;;;;;;;3.42;0.80;;;;;;;10.96;100.00;97732.81;5228553;28;20032;-87
2022/02/17 01:39:40;;;;;;;4.75;0.80;;;;;;;10.96;100.00;97724.97;5231964;28;20042;-88
2022/02/17 01:42:11;;;;;;;5.05;0.85;;;;;;;10.89;100.00;97716.00;5232081;28;20119;-88
2022/02/17 01:44:41;;;;;;;4.32;0.77;;;;;;;10.85;100.00;97701.53;5234001;28;20024;-88
2022/02/17 01:47:14;;;;;;;8.85;1.27;;;;;;;10.77;100.00;97704.78;5227774;28;20027;-88
2022/02/17 01:49:47;;;;;;;7.28;0.90;;;;;;;10.66;100.00;97735.34;5233906;28;20029;-88
2022/02/17 01:52:18;;;;;;;4.25;0.73;;;;;;;10.69;100.00;97714.19;5233032;28;20029;-87
2022/02/17 01:54:48;;;;;;;5.32;1.20;;;;;;;10.78;99.89;97718.66;5233443;28;20043;-88
2022/02/17 01:57:23;;;;;;;5.97;1.00;;;;;;;10.79;99.97;97673.28;5231262;28;20016;-89
2022/02/17 01:59:53;;;;;;;5.43;1.20;;;;;;;10.73;100.00;97655.53;5229875;28;20699;-88
2022/02/17 02:02:24;;;;;;;7.15;1.00;;;;;;;10.74;98.71;97638.88;5232120;28;20123;-88
2022/02/17 02:04:54;;;;;;;7.68;1.48;;;;;;;10.82;96.66;97665.22;5226203;28;20021;-88
2022/02/17 02:07:25;;;;;;;7.13;1.60;;;;;;;10.87;95.56;97684.75;5224605;28;20033;-88
2022/02/17 02:09:56;;;;;;;5.78;1.27;;;;;;;10.81;96.39;97702.72;5234480;28;20031;-87
2022/02/17 02:12:26;;;;;;;8.45;1.27;;;;;;;10.86;96.58;97703.19;5225544;28;20024;-87
2022/02/17 02:14:58;;;;;;;8.57;1.10;;;;;;;10.90;96.41;97702.81;5226185;28;20021;-88
2022/02/17 02:17:29;;;;;;;5.85;1.00;;;;;;;10.90;96.13;97686.28;5236111;28;20025;-89
2022/02/17 02:20:04;;;;;;;8.60;1.15;;;;;;;11.00;92.77;97692.44;5237562;28;20051;-88
2022/02/17 02:22:36;;;;;;;5.75;1.20;;;;;;;11.05;92.75;97689.28;5233877;28;20033;-89
2022/02/17 02:25:07;;;;;;;4.68;1.10;;;;;;;11.05;92.79;97662.31;5234845;28;20425;-90
2022/02/17 02:27:37;;;;;;;6.88;1.13;;;;;;;11.07;90.17;97663.06;5237309;28;20033;-88
2022/02/17 02:30:08;;;;;;;7.30;1.17;;;;;;;11.00;90.67;97668.91;5237165;28;20032;-88
2022/02/17 02:32:38;;;;;;;7.82;1.15;;;;;;;10.93;90.15;97658.16;5236219;28;20032;-88
2022/02/17 02:35:09;;;;;;;3.10;1.00;;;;;;;10.94;87.93;97643.28;5227626;28;20032;-89
2022/02/17 02:37:39;;;;;;;6.25;1.27;;;;;;;10.88;87.85;97612.47;5226946;28;20283;-88
2022/02/17 02:40:10;;;;;;;3.85;0.90;;;;;;;10.87;86.05;97629.91;5235873;28;20025;-89
2022/02/17 02:42:40;;;;;;;5.22;0.85;;;;;;;10.83;82.90;97636.34;5232652;28;20032;-88
2022/02/17 02:45:11;;;;;;;5.10;0.68;;;;;;;10.78;81.01;97650.72;5232136;28;20430;-88
2022/02/17 02:47:41;;;;;;;1.70;0.40;;;;;;;10.76;78.56;97639.59;5233205;28;20043;-88
2022/02/17 02:50:11;;;;;;;5.68;0.70;;;;;;;10.68;78.11;97634.19;5233584;28;20477;-87
2022/02/17 02:52:42;;;;;;;4.20;1.08;;;;;;;10.60;78.66;97623.53;5232379;28;20033;-88
2022/02/17 02:55:12;;;;;;;5.75;0.85;;;;;;;10.60;78.69;97615.69;5236703;28;20034;-88
2022/02/17 02:57:42;;;;;;;4.07;0.80;;;;;;;10.50;79.30;97625.25;5227117;28;20103;-88
2022/02/17 03:00:13;;;;;;;5.43;1.02;;;;;;;10.49;80.50;97636.66;5233525;28;20025;-89
2022/02/17 03:02:44;;;;;;;5.75;1.20;;;;;;;10.53;80.69;97656.34;5229411;28;20094;-87
2022/02/17 03:05:14;;;;;;;8.18;1.00;;;;;;;10.67;80.11;97648.19;5228730;28;20517;-87
2022/02/17 03:07:44;;;;;;;9.05;1.30;;;;;;;10.60;81.34;97670.53;5225591;28;20037;-88
2022/02/17 03:10:14;;;;;;;6.35;1.10;;;;;;;10.59;81.24;97669.72;5234946;28;20028;-88
2022/02/17 03:12:45;;;;;;;5.53;1.02;;;;;;;10.63;82.98;97683.34;5236227;28;20624;-87
2022/02/17 03:15:16;;;;;;;10.98;1.80;;;;;;;10.63;84.19;97701.59;5232449;28;20060;-88
2022/02/17 03:17:46;;;;;;;9.13;1.15;;;;;;;10.57;84.72;97681.22;5237142;28;20090;-87
2022/02/17 03:20:18;;;;;;;6.72;1.27;;;;;;;10.54;85.40;97681.50;5233737;28;20021;-87
2022/02/17 03:22:48;;;;;;;8.02;1.50;;;;;;;10.50;85.96;97674.88;5235985;28;20040;-88
2022/02/17 03:27:57;;;;;;;11.57;1.30;;;;;;;10.61;86.52;97721.81;5222163;28;20053;-81
2022/02/17 03:30:28;;;;;;;7.18;1.42;;;;;;;10.62;86.39;97739.13;5216563;28;20124;-80
2022/02/17 03:32:59;;;;;;;7.03;1.30;;;;;;;10.47;86.93;97780.34;5213903;28;20052;-80
2022/02/17 03:35:29;;;;;;;7.03;1.10;;;;;;;10.13;86.75;97809.25;5209960;28;20029;-82
2022/02/17 03:37:59;;;;;;;10.10;1.17;;;;;;;9.74;87.51;97794.00;5228907;22;20120;-82
2022/02/17 03:40:29;;;;;;;2.13;0.82;;;;;;;9.47;89.28;97801.34;5181563;28;20185;-80
2022/02/17 03:43:00;;;;;;;6.00;1.02;;;;;;;9.23;89.83;97804.00;5190931;28;20386;-81
2022/02/17 03:45:30;;;;;;;5.32;0.90;;;;;;;9.09;91.90;97795.50;5190975;28;20029;-80
2022/02/17 03:48:00;;;;;;;6.10;0.82;;;;;;;9.04;92.11;97782.00;5194055;28;20036;-80
2022/02/17 03:50:30;;;;;;;4.97;1.00;;;;;;;8.94;92.18;97786.25;5189878;28;20040;-80
2022/02/17 03:53:01;;;;;;;6.32;0.77;;;;;;;9.01;92.66;97808.28;5193767;28;20129;-80
2022/02/17 03:55:31;;;;;;;6.18;0.70;;;;;;;8.99;92.92;97818.00;5191551;28;20026;-81
2022/02/17 03:58:01;;;;;;;6.32;1.08;;;;;;;8.90;93.75;97831.66;5193944;28;20433;-80
2022/02/17 04:00:32;;;;;;;6.18;1.08;;;;;;;8.91;93.27;97833.31;5191610;28;20026;-80
2022/02/17 04:03:04;;;;;;;7.70;1.00;;;;;;;8.94;93.39;97830.53;5192072;28;20422;-80
2022/02/17 04:05:34;;;;;;;6.07;1.30;;;;;;;8.99;93.92;97831.00;5185793;28;20034;-80
2022/02/17 04:08:04;;;;;;;6.43;1.10;;;;;;;9.01;93.38;97844.75;5194041;28;20072;-80
2022/02/17 04:10:34;;;;;;;6.50;1.20;;;;;;;9.14;92.35;97845.53;5193228;28;20029;-79
2022/02/17 04:13:05;;;;;;;7.78;1.20;;;;;;;9.30;90.46;97865.13;5189911;28;20033;-80
2022/02/17 04:15:35;;;;;;;8.80;1.38;;;;;;;9.31;90.96;97874.59;5193361;28;20052;-80
2022/02/17 04:18:05;;;;;;;7.68;1.35;;;;;;;9.35;90.66;97870.00;5190806;28;20026;-80
2022/02/17 04:20:35;;;;;;;9.25;1.73;;;;;;;9.41;89.95;97878.19;5193475;28;20029;-80
2022/02/17 04:23:06;;;;;;;7.95;1.20;;;;;;;9.51;86.70;97897.41;5191105;28;20152;-80
2022/02/17 04:25:36;;;;;;;10.38;1.70;;;;;;;9.59;83.81;97884.66;5193545;28;20036;-80
2022/02/17 04:28:07;;;;;;;9.98;1.42;;;;;;;9.76;81.24;97876.41;5191487;28;20425;-80
2022/02/17 04:30:37;;;;;;;6.78;1.13;;;;;;;9.75;80.87;97879.09;5192810;28;20029;-80
2022/02/17 04:33:07;;;;;;;11.95;1.38;;;;;;;9.82;78.80;97922.06;5197364;28;20025;-80
2022/02/17 04:35:38;;;;;;;7.95;1.35;;;;;;;9.85;77.92;97922.63;5185183;28;20026;-79
2022/02/17 04:38:08;;;;;;;9.70;1.60;;;;;;;9.87;77.43;97910.34;5194655;28;20044;-80
2022/02/17 04:43:27;;;;;;;13.23;1.98;;;;;;;9.85;77.69;97933.06;5186908;28;20160;-80
2022/02/17 04:45:58;;;;;;;11.07;2.00;;;;;;;9.82;78.89;97938.50;5192925;28;20109;-80
2022/02/17 04:48:28;;;;;;;9.30;1.58;;;;;;;9.77;79.04;97925.00;5188530;28;20029;-79
2022/02/17 04:50:58;;;;;;;10.70;2.08;;;;;;;9.80;78.22;97935.19;5191358;28;20558;-79
2022/02/17 04:53:29;;;;;;;8.45;1.73;;;;;;;9.80;78.26;97923.94;5189080;28;20037;-80
2022/02/17 04:55:59;;;;;;;5.72;1.10;;;;;;;9.83;77.28;97960.22;5185644;28;20053;-80
2022/02/17 04:58:30;;;;;;;7.53;1.15;;;;;;;9.80;77.22;97955.25;5193080;28;20029;-79
2022/02/17 05:01:00;;;;;;;10.48;1.70;;;;;;;9.82;76.32;97959.38;5188873;28;20029;-79
2022/02/17 05:03:30;;;;;;;4.60;0.95;;;;;;;9.82;75.63;97969.00;5194223;28;20088;-79
2022/02/17 05:06:02;;;;;;;8.65;1.75;;;;;;;9.80;76.90;97986.53;5185288;28;20080;-79
2022/02/17 05:08:32;;;;;;;10.40;1.48;;;;;;;9.72;76.99;97973.22;5192172;28;20025;-79
2022/02/17 05:11:03;;;;;;;8.57;1.70;;;;;;;9.69;77.61;97969.03;5191212;28;20026;-79
2022/02/17 05:13:33;;;;;;;7.18;1.58;;;;;;;9.74;75.42;97980.00;5194145;28;20160;-79
2022/02/17 05:16:04;;;;;;;8.93;1.27;;;;;;;9.65;76.48;97987.66;5190842;28;20032;-78
2022/02/17 05:18:35;;;;;;;8.60;1.52;;;;;;;9.61;75.66;97975.75;5193239;28;20377;-80
2022/02/17 05:21:06;;;;;;;9.20;1.55;;;;;;;9.60;74.86;97995.81;5191023;28;20033;-79
2022/02/17 05:23:36;;;;;;;9.82;1.45;;;;;;;9.53;75.08;98009.41;5192348;28;20030;-80
2022/02/17 05:26:07;;;;;;;7.60;1.35;;;;;;;9.50;75.33;97978.34;5190699;28;20387;-80
2022/02/17 05:28:37;;;;;;;11.02;1.50;;;;;;;9.43;75.20;98000.56;5192702;28;20037;-80
2022/02/17 05:31:07;;;;;;;13.00;2.05;;;;;;;9.38;76.62;98010.50;5190843;28;20586;-79
2022/02/17 05:33:38;;;;;;;14.23;1.90;;;;;;;9.33;76.00;97991.75;5198014;28;20029;-79
2022/02/17 05:36:08;;;;;;;7.15;1.35;;;;;;;9.33;76.05;98031.66;5187417;28;20021;-80
2022/02/17 05:38:38;;;;;;;12.88;1.85;;;;;;;9.27;76.08;98007.81;5192114;28;20048;-78
2022/02/17 05:41:09;;;;;;;9.35;1.60;;;;;;;9.31;75.34;98014.50;5191240;28;20062;-80
2022/02/17 05:43:40;;;;;;;9.02;1.30;;;;;;;9.33;75.69;98023.03;5191249;28;20029;-79
2022/02/17 05:46:10;;;;;;;10.90;1.30;;;;;;;9.31;76.16;98024.91;5190664;28;20033;-79
2022/02/17 05:48:41;;;;;;;12.02;1.90;;;;;;;9.28;76.63;98017.31;5191884;28;20080;-80
2022/02/17 05:51:12;;;;;;;10.32;1.75;;;;;;;9.35;75.74;98032.38;5191532;28;20032;-79
2022/02/17 05:53:43;;;;;;;10.45;1.83;;;;;;;9.32;76.32;98031.78;5192020;28;20033;-79
2022/02/17 05:56:13;;;;;;;10.25;1.90;;;;;;;9.29;75.66;98037.22;5192230;28;20018;-79
2022/02/17 05:58:44;;;;;;;13.65;1.63;;;;;;;9.29;75.30;98034.63;5191071;28;20033;-80
2022/02/17 06:01:14;;;;;;;15.80;1.80;;;;;;;9.27;75.87;98039.09;5191467;28;20394;-79
2022/02/17 06:03:44;;;;;;;11.10;1.58;;;;;;;9.31;74.45;98030.13;5192296;28;20112;-79
2022/02/17 06:06:14;;;;;;;9.85;1.50;;;;;;;9.25;75.55;98041.81;5188058;28;20029;-79
2022/02/17 06:08:45;;;;;;;10.38;2.03;;;;;;;9.24;75.02;98034.94;5191816;28;20033;-79
2022/02/17 06:11:15;;;;;;;7.37;1.77;;;;;;;9.15;74.80;98051.19;5190265;28;20029;-78
2022/02/17 06:13:45;;;;;;;11.07;1.60;;;;;;;9.11;75.24;98054.16;5188349;28;20311;-78
2022/02/17 06:16:15;;;;;;;6.32;1.42;;;;;;;9.09;75.13;98066.41;5190995;28;20021;-79
2022/02/17 06:18:46;;;;;;;9.25;1.50;;;;;;;9.05;74.87;98059.78;5188891;28;20033;-79
2022/02/17 06:21:16;;;;;;;11.77;1.58;;;;;;;9.12;73.72;98070.59;5190837;28;20029;-80
2022/02/17 06:23:47;;;;;;;9.77;1.95;;;;;;;9.06;74.44;98081.47;5189396;28;20115;-80
2022/02/17 06:26:18;;;;;;;6.97;1.23;;;;;;;9.10;73.64;98104.56;5191373;28;20032;-80
2022/02/17 06:28:48;;;;;;;7.97;1.45;;;;;;;9.11;73.18;98105.41;5187727;28;20042;-80
2022/02/17 06:31:18;;;;;;;9.38;1.35;;;;;;;9.07;73.37;98098.75;5190175;28;20022;-80
2022/02/17 06:33:49;;;;;;;6.22;1.10;;;;;;;9.07;73.48;98123.00;5193910;28;20057;-80
2022/02/17 06:36:19;;;;;;;12.00;1.55;;;;;;;9.08;73.04;98136.88;5181733;28;20026;-81
2022/02/17 06:38:49;;;;;;;6.05;1.58;;;;;;;9.12;73.87;98133.97;5190694;28;20039;-81
2022/02/17 06:41:22;;;;;;;7.78;1.40;;;;;;;9.10;73.95;98114.97;5196242;28;20029;-81
2022/02/17 06:43:52;;;;;;;9.80;1.52;;;;;;;9.05;74.48;98135.31;5183586;28;20558;-81
2022/02/17 06:46:22;;;;;;;7.18;1.38;;;;;;;9.08;75.38;98137.69;5188021;28;20118;-81
2022/02/17 06:48:53;;;;;;;4.75;1.05;;;;;;;9.06;74.84;98150.00;5190952;28;20025;-81
2022/02/17 06:51:23;;;;;;;5.72;0.93;;;;;;;9.13;74.44;98144.28;5188171;28;20079;-81
2022/02/17 06:53:53;;;;;;;9.05;1.75;;;;;;;9.12;75.27;98152.22;5188050;28;20052;-81
2022/02/17 06:56:24;;;;;;;7.07;1.38;;;;;;;9.20;74.56;98152.50;5195360;28;20109;-81
2022/02/17 06:58:54;;;;;;;8.38;1.20;;;;;;;9.21;74.60;98160.22;5192206;28;20029;-81
2022/02/17 07:01:24;;;;;;;8.20;1.17;;;;;;;9.20;74.48;98176.81;5189921;28;20033;-81
2022/02/17 07:03:55;;;;;;;7.53;1.30;;;;;;;9.21;74.64;98194.09;5194067;28;20122;-82
2022/02/17 07:06:25;;;;;;;13.75;1.58;;;;;;;9.19;75.28;98172.53;5191358;28;20022;-81
2022/02/17 07:08:55;;;;;;;5.18;0.98;;;;;;;9.19;75.03;98202.94;5191247;28;20022;-81
2022/02/17 07:11:26;;;;;;;10.15;1.55;;;;;;;9.10;75.18;98172.28;5195081;28;20056;-81
2022/02/17 07:13:56;;;;;;;6.97;1.15;;;;;;;9.13;74.82;98198.97;5188005;28;20021;-81
2022/02/17 07:16:26;;;;;;;8.50;1.45;;;;;;;9.17;73.84;98210.03;5196370;28;20502;-80
2022/02/17 07:18:56;;;;;;;9.90;1.45;;;;;;;9.16;75.03;98214.41;5181839;28;20411;-80
2022/02/17 07:21:27;;;;;;;6.70;1.15;;;;;;;9.18;75.04;98222.13;5179929;28;20037;-81
2022/02/17 07:23:57;;;;;;;4.93;0.60;;;;;;;9.15;74.42;98224.94;5181556;28;20026;-81
2022/02/17 07:26:27;;;;;;;10.25;1.80;;;;;;;9.23;74.40;98252.16;5182208;28;20349;-81
2022/02/17 07:28:58;;;;;;;5.22;1.30;;;;;;;9.23;74.70;98252.16;5195107;28;20030;-81
2022/02/17 07:31:28;;;;;;;8.68;1.35;;;;;;;9.30;74.31;98253.41;5191959;28;20103;-82
2022/02/17 07:33:58;;;;;;;7.80;1.60;;;;;;;9.36;74.70;98267.78;5200988;28;20112;-81
2022/02/17 07:36:29;;;;;;;6.10;1.13;;;;;;;9.38;73.58;98276.34;5195574;28;20026;-82
2022/02/17 07:38:59;;;;;;;8.55;1.33;;;;;;;9.34;73.89;98291.34;5191615;28;20026;-82
2022/02/17 07:41:31;;;;;;;8.55;1.20;;;;;;;9.37;70.83;98266.84;5191530;28;20036;-81
2022/02/17 07:44:01;;;;;;;8.88;1.70;;;;;;;9.40;71.72;98287.50;5198011;28;20037;-81
2022/02/17 07:46:32;;;;;;;7.50;1.20;;;;;;;9.44;71.05;98304.59;5196138;28;20503;-81
2022/02/17 07:49:03;;;;;;;9.75;1.60;;;;;;;9.46;71.41;98303.56;5198675;28;20033;-81
2022/02/17 07:51:34;;;;;;;9.68;1.20;;;;;;;9.46;71.88;98313.97;5191853;28;20038;-82
2022/02/17 07:54:04;;;;;;;11.45;1.30;;;;;;;9.53;71.47;98314.41;5193798;28;20044;-81
2022/02/17 07:56:34;;;;;;;10.30;1.17;;;;;;;9.49;71.43;98331.19;5196885;28;20088;-82
2022/02/17 07:59:05;;;;;;;8.50;1.23;;;;;;;9.54;72.53;98334.31;5199227;28;20029;-82
2022/02/17 08:01:35;;;;;;;13.32;1.30;;;;;;;9.58;71.99;98341.00;5195523;28;20603;-82
2022/02/17 08:04:05;;;;;;;6.55;1.00;;;;;;;9.51;72.60;98314.50;5193616;28;20033;-82
2022/02/17 08:06:37;;;;;;;7.70;1.10;;;;;;;9.59;71.58;98334.84;5193356;28;20103;-82
2022/02/17 08:09:07;;;;;;;7.55;1.00;;;;;;;9.61;71.18;98351.22;5185818;28;20276;-81
2022/02/17 08:11:37;;;;;;;10.90;1.38;;;;;;;9.71;71.07;98347.06;5188581;28;20056;-80
2022/02/17 08:14:07;;;;;;;7.88;1.40;;;;;;;9.96;71.05;98337.47;5189366;28;20022;-81
2022/02/17 08:16:38;;;;;;;5.30;0.82;;;;;;;9.72;70.76;98353.94;5190512;28;20491;-81
2022/02/17 08:19:08;;;;;;;6.15;1.13;;;;;;;9.64;71.29;98377.94;5191345;28;20863;-80
2022/02/17 08:21:38;;;;;;;9.40;1.35;;;;;;;9.69;71.05;98388.88;5190727;28;20049;-81
2022/02/17 08:24:09;;;;;;;10.68;1.20;;;;;;;9.70;71.74;98382.75;5191235;28;20053;-80
2022/02/17 08:26:40;;;;;;;7.50;1.02;;;;;;;9.58;70.62;98386.16;5189810;28;20091;-80
2022/02/17 08:29:11;;;;;;;6.30;1.42;;;;;;;9.52;70.37;98398.78;5187997;28;20029;-81
2022/02/17 08:31:43;;;;;;;8.18;1.15;;;;;;;9.69;70.28;98440.22;5190847;28;20072;-81
2022/02/17 08:34:13;;;;;;;8.05;1.33;;;;;;;9.63;70.68;98406.72;5189616;28;20030;-81
2022/02/17 08:36:44;;;;;;;7.18;1.27;;;;;;;9.67;70.74;98418.63;5184355;28;20388;-82
2022/02/17 08:39:14;;;;;;;7.53;1.35;;;;;;;9.64;70.90;98429.25;5192246;28;20510;-81
2022/02/17 08:41:45;;;;;;;6.75;1.20;;;;;;;9.58;71.15;98469.59;5191441;28;20435;-82
2022/02/17 08:44:15;;;;;;;5.63;1.38;;;;;;;9.53;71.45;98447.38;5187837;28;20104;-80
2022/02/17 08:46:48;;;;;;;10.68;1.33;;;;;;;9.99;70.74;98459.06;5184062;28;20834;-81
2022/02/17 08:49:19;;;;;;;6.15;1.45;;;;;;;9.83;71.02;98466.22;5188416;28;20047;-81
2022/02/17 08:51:49;;;;;;;5.05;1.10;;;;;;;10.01;69.75;98450.19;5187599;28;20029;-82
2022/02/17 08:54:19;;;;;;;8.15;1.40;;;;;;;9.91;70.69;98459.56;5191173;28;20117;-81
2022/02/17 08:56:50;;;;;;;10.95;1.45;;;;;;;10.05;69.51;98464.75;5191088;28;20044;-81
2022/02/17 08:59:20;;;;;;;6.30;1.08;;;;;;;9.86;69.96;98482.50;5187850;28;20029;-81
2022/02/17 09:01:51;;;;;;;7.28;1.60;;;;;;;10.40;67.40;98460.56;5190901;28;20033;-81
2022/02/17 09:04:23;;;;;;;6.85;1.23;;;;;;;10.36;68.10;98481.75;5189065;28;20036;-81
2022/02/17 09:06:54;;;;;;;6.40;0.93;;;;;;;10.81;66.29;98499.47;5187737;28;20434;-81
2022/02/17 09:09:24;;;;;;;7.70;1.30;;;;;;;10.40;67.73;98499.75;5191922;28;20033;-81
2022/02/17 09:11:54;;;;;;;6.18;1.00;;;;;;;9.87;69.20;98525.09;5194880;28;20498;-82
2022/02/17 09:14:25;;;;;;;8.63;0.90;;;;;;;9.79;70.26;98516.94;5194339;28;20040;-81
2022/02/17 09:16:55;;;;;;;7.80;1.30;;;;;;;9.93;70.68;98529.88;5190546;28;20022;-81
2022/02/17 09:19:25;;;;;;;7.78;1.13;;;;;;;9.71;71.90;98537.44;5189324;28;20025;-81
2022/02/17 09:21:58;;;;;;;6.90;1.00;;;;;;;9.59;73.24;98577.34;5194724;28;20056;-81
2022/02/17 09:24:28;;;;;;;8.32;1.20;;;;;;;9.55;72.66;98571.50;5192457;28;20038;-81
2022/02/17 09:26:58;;;;;;;4.20;1.10;;;;;;;9.48;73.13;98582.41;5196142;28;20037;-81
2022/02/17 09:29:29;;;;;;;8.05;1.20;;;;;;;9.59;73.15;98574.72;5191637;28;20040;-81
2022/02/17 09:31:59;;;;;;;9.85;1.73;;;;;;;9.56;72.79;98598.41;5194286;28;20116;-81
2022/02/17 09:34:29;;;;;;;7.32;1.25;;;;;;;9.65;73.33;98592.63;5193193;28;20026;-81
2022/02/17 09:37:00;;;;;;;8.18;1.08;;;;;;;9.48;73.91;98592.84;5194238;28;20079;-82
2022/02/17 09:39:33;;;;;;;7.20;1.35;;;;;;;9.55;73.96;98596.72;5195883;28;20034;-82
2022/02/17 09:42:05;;;;;;;11.10;1.65;;;;;;;10.12;71.68;98587.78;5197396;28;20033;-81
2022/02/17 09:44:35;;;;;;;7.22;1.20;;;;;;;10.12;71.84;98604.31;5196870;28;20115;-82
2022/02/17 09:47:11;;;;;;;9.70;1.67;;;;;;;9.78;73.19;98630.00;5192730;28;20046;-83
2022/02/17 09:49:43;;;;;;;8.35;1.20;;;;;;;9.39;76.27;98650.75;5192866;28;20025;-82
2022/02/17 09:52:16;;;;;;;6.07;0.95;;;;;;;9.02;79.03;98661.72;5197126;28;20034;-82
2022/02/17 09:54:47;;;;;;;6.75;0.90;;;;;;;9.20;79.75;98640.63;5197138;28;20061;-82
2022/02/17 09:57:21;;;;;;;7.13;1.52;;;;;;;9.25;78.27;98653.34;5194800;28;20488;-82
2022/02/17 09:59:52;;;;;;;9.73;2.37;;;;;;;9.34;77.86;98651.00;5200754;28;20100;-82
2022/02/17 10:02:24;;;;;;;12.90;1.73;;;;;;;9.46;76.68;98655.50;5195622;28;20134;-82
2022/02/17 10:04:56;;;;;;;9.32;1.33;;;;;;;9.59;75.38;98655.56;5192393;28;20048;-83
2022/02/17 10:07:30;;;;;;;13.68;3.65;;;;;;;9.71;75.30;98665.22;5190936;28;20043;-81
2022/02/17 10:10:05;;;;;;;4.35;1.38;;;;;;;9.58;73.29;98669.53;5183605;28;20029;-82
2022/02/17 10:12:49;;;;;;;9.43;1.20;;;;;;;9.51;73.88;98679.50;5186655;28;20107;-81
2022/02/17 10:15:31;;;;;;;10.85;1.70;;;;;;;9.41;74.13;98674.94;5186720;28;20029;-81
2022/02/17 10:18:12;;;;;;;9.52;1.63;;;;;;;9.33;74.28;98677.19;5184163;28;20029;-81
2022/02/17 10:21:06;;;;;;;9.05;1.30;;;;;;;9.43;75.01;98683.50;5186657;28;20558;-80
2022/02/17 10:23:46;;;;;;;6.93;1.50;;;;;;;9.50;75.06;98709.09;5188638;28;20088;-80
2022/02/17 10:26:19;;;;;;;7.90;1.10;;;;;;;9.61;74.94;98716.28;5189200;28;20036;-80
2022/02/17 10:28:55;;;;;;;6.90;1.02;;;;;;;9.44;74.99;98696.47;5190458;28;20029;-80
2022/02/17 10:31:29;;;;;;;8.57;1.27;;;;;;;9.49;75.13;98724.88;5188852;28;20109;-80
2022/02/17 10:34:00;;;;;;;6.30;1.30;;;;;;;9.55;74.38;98732.31;5191149;28;20030;-80
2022/02/17 10:36:43;;;;;;;6.93;1.30;;;;;;;9.83;74.00;98769.66;5190609;28;20026;-80
2022/02/17 10:39:19;;;;;;;8.35;1.40;;;;;;;9.92;73.35;98731.72;5193713;28;20117;-80
2022/02/17 10:41:51;;;;;;;8.25;1.60;;;;;;;9.80;73.41;98776.84;5193952;28;20029;-80
2022/02/17 10:44:23;;;;;;;11.43;1.60;;;;;;;9.53;74.95;98791.53;5192509;28;20152;-80
2022/02/17 10:46:53;;;;;;;12.00;2.03;;;;;;;9.43;76.00;98790.38;5191631;28;20638;-80
2022/02/17 10:49:23;;;;;;;6.40;1.25;;;;;;;9.31;77.13;98796.34;5192887;28;20036;-80
2022/02/17 10:52:00;;;;;;;10.68;1.65;;;;;;;8.97;79.89;98801.84;5191051;28;20079;-80
2022/02/17 10:54:30;;;;;;;11.88;2.05;;;;;;;9.04;80.90;98816.19;5190616;28;20641;-80
2022/02/17 10:57:05;;;;;;;8.65;1.23;;;;;;;9.19;78.69;98803.13;5185052;28;20029;-80
2022/02/17 11:02:27;;;;;;;4.07;0.85;;;;;;;9.15;78.47;98838.09;5187117;28;20037;-79
2022/02/17 11:04:58;;;;;;;5.65;1.13;;;;;;;9.27;77.87;98815.69;5185038;28;20026;-80
2022/02/17 11:07:28;;;;;;;8.98;1.85;;;;;;;9.22;78.17;98820.31;5182107;28;20037;-80
2022/02/17 11:09:59;;;;;;;7.97;2.35;;;;;;;9.23;76.48;98835.03;5195544;28;20029;-81
2022/02/17 11:12:30;;;;;;;10.13;1.98;;;;;;;9.34;77.04;98801.38;5190935;28;20044;-80
2022/02/17 11:15:04;;;;;;;9.13;2.00;;;;;;;9.56;75.66;98801.78;5192008;28;20045;-80
2022/02/17 11:17:38;;;;;;;7.05;1.40;;;;;;;9.83;74.41;98823.59;5193961;28;20022;-80
2022/02/17 11:20:16;;;;;;;12.45;1.48;;;;;;;9.84;74.14;98828.72;5192248;28;20030;-80
2022/02/17 11:22:49;;;;;;;8.35;1.55;;;;;;;9.83;74.18;98834.03;5193970;28;20140;-80
2022/02/17 11:25:39;;;;;;;8.82;1.35;;;;;;;9.88;73.74;98834.59;5192182;28;20037;-80
2022/02/17 11:28:11;;;;;;;6.70;1.13;;;;;;;9.73;73.08;98840.72;5189175;28;20033;-80
2022/02/17 11:31:03;;;;;;;5.47;1.10;;;;;;;9.78;72.66;98843.88;5191521;28;20826;-80
2022/02/17 11:33:35;;;;;;;8.45;1.40;;;;;;;9.72;72.66;98849.47;5191900;28;20077;-80
2022/02/17 11:36:08;;;;;;;7.35;1.20;;;;;;;9.86;73.04;98855.53;5183673;28;20032;-80
2022/02/17 11:38:39;;;;;;;6.68;1.40;;;;;;;9.65;71.14;98858.63;5187063;28;20087;-80
2022/02/17 11:41:15;;;;;;;5.90;1.02;;;;;;;9.53;71.40;98865.41;5183114;28;20117;-80
2022/02/17 11:43:51;;;;;;;8.18;1.60;;;;;;;9.35;74.47;98870.81;5190056;28;20123;-80
2022/02/17 11:46:40;;;;;;;5.68;1.50;;;;;;;9.38;74.38;98868.88;5190290;28;20025;-80
2022/02/17 11:49:12;;;;;;;7.85;1.95;;;;;;;9.41;73.86;98867.84;5188517;28;20408;-80
2022/02/17 11:51:43;;;;;;;15.23;2.78;;;;;;;9.54;72.78;98892.28;5197524;28;20095;-81
2022/02/17 11:54:16;;;;;;;10.48;1.80;;;;;;;9.56;72.31;98890.44;5189005;28;20094;-81
2022/02/17 11:56:48;;;;;;;7.50;1.63;;;;;;;9.73;72.97;98904.19;5190400;28;20574;-81
2022/02/17 11:59:26;;;;;;;7.03;1.13;;;;;;;9.69;72.60;98907.06;5188714;28;20033;-81
2022/02/17 12:01:59;;;;;;;5.57;1.33;;;;;;;9.58;72.13;98922.47;5188903;28;20037;-80
2022/02/17 12:04:30;;;;;;;9.48;1.35;;;;;;;9.44;71.69;98910.25;5183003;28;20062;-81